ADDS METAR Data INFO
IDs: Format: Raw Decoded Include TAF

Data at: 1514 UTC 11 Dec 2017

KMAW 111455Z AUTO 18005KT 10SM CLR 03/00 A3011 RMK AO2
KMAW 111435Z AUTO 18005KT 10SM CLR 02/M01 A3011 RMK AO2
KMAW 111415Z AUTO 16004KT 10SM CLR 01/M02 A3011 RMK AO2
KMAW 111355Z AUTO 17003KT 10SM CLR 02/M02 A3012 RMK AO2
KMAW 111335Z AUTO 00000KT 10SM CLR 02/M02 A3013 RMK AO2
KMAW 111315Z AUTO 00000KT 10SM CLR 01/M02 A3013 RMK AO2
KMAW 111255Z AUTO 00000KT 10SM CLR 01/M02 A3013 RMK AO2
KMAW 111235Z AUTO 00000KT 10SM CLR 01/M02 A3013 RMK AO2
KMAW 111215Z AUTO 00000KT 10SM CLR 01/M02 A3013 RMK AO2
KMAW 111155Z AUTO 00000KT 10SM CLR 01/M02 A3013 RMK AO2
KMAW 111135Z AUTO 19003KT 10SM CLR 01/M02 A3012 RMK AO2
KMAW 111115Z AUTO 21004KT 10SM CLR 03/M02 A3013 RMK AO2
KMAW 111055Z AUTO 23005KT 10SM CLR 03/M02 A3014 RMK AO2
KMAW 111035Z AUTO 00000KT 10SM CLR 04/M02 A3015 RMK AO2
KMAW 111015Z AUTO 00000KT 10SM CLR 03/M01 A3015 RMK AO2
KMAW 110955Z AUTO 25008KT 10SM CLR 03/M02 A3016 RMK AO2
KMAW 110935Z AUTO 21004KT 10SM CLR 03/M02 A3015 RMK AO2
KMAW 110915Z AUTO 25003KT 10SM CLR 02/M02 A3015 RMK AO2
KMAW 110855Z AUTO 24003KT 10SM CLR 01/M01 A3017 RMK AO2
KMAW 110835Z AUTO 22003KT 10SM CLR 02/M01 A3017 RMK AO2
KMAW 110815Z AUTO 00000KT 10SM CLR 03/M01 A3016 RMK AO2
KMAW 110755Z AUTO 00000KT 10SM CLR 03/M01 A3016 RMK AO2
KMAW 110735Z AUTO 18003KT 10SM CLR 03/M01 A3016 RMK AO2
KMAW 110715Z AUTO 00000KT 10SM CLR 03/00 A3017 RMK AO2
KMAW 110655Z AUTO 00000KT 10SM CLR 03/M01 A3017 RMK AO2
KMAW 110635Z AUTO 00000KT 10SM CLR 02/M01 A3017 RMK AO2
KMAW 110615Z AUTO 00000KT 10SM CLR 04/00 A3017 RMK AO2
KMAW 110555Z AUTO 00000KT 10SM CLR 03/M01 A3018 RMK AO2
KMAW 110535Z AUTO 00000KT 10SM CLR 05/00 A3018 RMK AO2
KMAW 110515Z AUTO 00000KT 10SM CLR 05/00 A3017 RMK AO2
KMAW 110455Z AUTO 26003KT 10SM CLR 05/00 A3017 RMK AO2
KMAW 110435Z AUTO 00000KT 10SM CLR 04/00 A3017 RMK AO2
KMAW 110415Z AUTO 00000KT 10SM CLR 04/00 A3017 RMK AO2
KMAW 110355Z AUTO 28005KT 10SM CLR 06/00 A3017 RMK AO2
KMAW 110335Z AUTO 00000KT 10SM CLR 05/00 A3017 RMK AO2
KMAW 110315Z AUTO 26003KT 10SM CLR 04/00 A3016 RMK AO2
KMAW 110255Z AUTO 00000KT 10SM CLR 05/00 A3016 RMK AO2
KMAW 110235Z AUTO 22004KT 10SM CLR 05/00 A3014 RMK AO2
KMAW 110215Z AUTO 21006KT 10SM CLR 06/00 A3014 RMK AO2
KMAW 110155Z AUTO 21007KT 10SM CLR 06/00 A3014 RMK AO2
KMAW 110135Z AUTO 21007KT 10SM CLR 06/00 A3014 RMK AO2
KMAW 110115Z AUTO 20007KT 10SM CLR 07/01 A3014 RMK AO2
KMAW 110055Z AUTO 20008KT 10SM CLR 08/01 A3014 RMK AO2
KMAW 110035Z AUTO 20009KT 10SM CLR 09/01 A3013 RMK AO2
KMAW 110015Z AUTO 20010KT 10SM CLR 10/00 A3012 RMK AO2
KMAW 102355Z AUTO 21009KT 10SM CLR 09/00 A3011 RMK AO2
KMAW 102335Z AUTO 21009KT 10SM CLR 10/00 A3011 RMK AO2
KMAW 102315Z AUTO 21010KT 10SM CLR 10/00 A3010 RMK AO2
KMAW 102255Z AUTO 21010KT 10SM CLR 11/00 A3009 RMK AO2
KMAW 102235Z AUTO 21013G19KT 10SM CLR 12/00 A3009 RMK AO2
KMAW 102215Z AUTO 20014KT 10SM CLR 12/00 A3009 RMK AO2
KMAW 102155Z AUTO 20012KT 10SM CLR 12/00 A3009 RMK AO2
KMAW 102135Z AUTO 20012KT 10SM CLR 12/00 A3009 RMK AO2
KMAW 102115Z AUTO 20014KT 10SM CLR 12/00 A3009 RMK AO2
KMAW 102055Z AUTO 21014G19KT 10SM CLR 12/00 A3010 RMK AO2
KMAW 102035Z AUTO 22014KT 10SM CLR 12/00 A3011 RMK AO2
KMAW 102015Z AUTO 22015KT 10SM CLR 11/M01 A3011 RMK AO2
KMAW 101955Z AUTO 20014G22KT 10SM CLR 11/M01 A3011 RMK AO2
KMAW 101935Z AUTO 21020G24KT 10SM CLR 11/M01 A3011 RMK AO2
KMAW 101915Z AUTO 20016G21KT 10SM CLR 10/M01 A3012 RMK AO2
KMAW 101855Z AUTO 21017G22KT 10SM CLR 09/M01 A3013 RMK AO2
KMAW 101835Z AUTO 20015G23KT 10SM CLR 08/M02 A3013 RMK AO2
KMAW 101815Z AUTO 20017KT 10SM CLR 08/M02 A3015 RMK AO2
KMAW 101755Z AUTO 20017G20KT 10SM CLR 07/M02 A3017 RMK AO2
KMAW 101735Z AUTO 20016KT 10SM CLR 06/M02 A3019 RMK AO2
KMAW 101715Z AUTO 21015G21KT 10SM CLR 06/M03 A3020 RMK AO2
KMAW 101655Z AUTO 20016G19KT 10SM CLR 05/M03 A3020 RMK AO2
KMAW 101635Z AUTO 20015KT 10SM CLR 04/M03 A3022 RMK AO2
KMAW 101615Z AUTO 20013KT 10SM CLR 03/M03 A3023 RMK AO2
KMAW 101555Z AUTO 19013KT 10SM CLR 02/M03 A3024 RMK AO2
KMAW 101535Z AUTO 20009KT 10SM CLR 01/M03 A3024 RMK AO2
KMAW 101515Z AUTO 19010KT 10SM CLR 01/M03 A3025 RMK AO2
KMAW 101455Z AUTO 19005KT 10SM CLR 00/M03 A3026 RMK AO2
KMAW 101435Z AUTO 18005KT 10SM CLR M01/M04 A3026 RMK AO2
KMAW 101415Z AUTO 19007KT 10SM CLR M01/M05 A3026 RMK AO2
KMAW 101355Z AUTO 19007KT 10SM CLR M02/M05 A3025 RMK AO2
KMAW 101335Z AUTO 18006KT 10SM CLR M02/M05 A3026 RMK AO2
KMAW 101315Z AUTO 19007KT 10SM CLR M01/M05 A3026 RMK AO2
KMAW 101255Z AUTO 19008KT 10SM CLR M01/M05 A3025 RMK AO2
KMAW 101235Z AUTO 20007KT 10SM CLR M01/M05 A3026 RMK AO2
KMAW 101215Z AUTO 20006KT 10SM CLR M01/M05 A3026 RMK AO2
KMAW 101155Z AUTO 20005KT 10SM CLR M01/M05 A3026 RMK AO2
KMAW 101135Z AUTO 20005KT 10SM CLR M02/M05 A3027 RMK AO2
KMAW 101115Z AUTO 00000KT 10SM CLR M03/M06 A3027 RMK AO2
KMAW 101055Z AUTO 19003KT 10SM CLR M03/M05 A3026 RMK AO2
KMAW 101035Z AUTO 00000KT 10SM CLR M03/M06 A3027 RMK AO2
KMAW 101015Z AUTO 00000KT 10SM CLR M03/M05 A3027 RMK AO2
KMAW 100955Z AUTO 20003KT 10SM CLR M03/M05 A3027 RMK AO2
KMAW 100935Z AUTO 00000KT 10SM CLR M03/M05 A3028 RMK AO2
KMAW 100915Z AUTO 18003KT 10SM CLR M03/M06 A3028 RMK AO2
KMAW 100855Z AUTO 20003KT 10SM CLR M03/M05 A3028 RMK AO2
KMAW 100835Z AUTO 00000KT 10SM CLR M03/M05 A3028 RMK AO2
KMAW 100815Z AUTO 00000KT 10SM CLR M02/M05 A3028 RMK AO2
KMAW 100755Z AUTO 00000KT 10SM CLR M03/M06 A3028 RMK AO2
KMAW 100735Z AUTO 00000KT 10SM CLR M02/M05 A3027 RMK AO2
KMAW 100715Z AUTO 00000KT 10SM CLR M02/M05 A3028 RMK AO2
KMAW 100655Z AUTO 00000KT 10SM CLR M01/M05 A3027 RMK AO2
KMAW 100635Z AUTO 00000KT 10SM CLR M01/M05 A3028 RMK AO2
KMAW 100615Z AUTO 00000KT 10SM CLR 00/M06 A3028 RMK AO2
KMAW 100555Z AUTO 00000KT 10SM CLR 00/M05 A3027 RMK AO2
KMAW 100535Z AUTO 01003KT 10SM CLR 00/M05 A3026 RMK AO2
KMAW 100515Z AUTO 00000KT 10SM CLR 00/M05 A3027 RMK AO2
KMAW 100455Z AUTO 00000KT 10SM CLR 00/M05 A3026 RMK AO2
KMAW 100435Z AUTO 34003KT 10SM CLR 01/M05 A3026 RMK AO2
KMAW 100415Z AUTO 33003KT 10SM CLR 01/M05 A3025 RMK AO2
KMAW 100355Z AUTO 00000KT 10SM CLR 00/M05 A3025 RMK AO2
KMAW 100335Z AUTO 00000KT 10SM CLR 01/M05 A3024 RMK AO2
KMAW 100315Z AUTO 31004KT 10SM CLR 01/M05 A3023 RMK AO2